createdAt,value
2018-11-11T00:01:15.144Z,77.11
2018-11-11T00:03:43.792Z,76.87
2018-11-11T00:06:12.494Z,76.92
2018-11-11T00:08:41.139Z,76.67
2018-11-11T00:11:09.870Z,76.42
2018-11-11T00:13:38.479Z,76.26
2018-11-11T00:16:07.257Z,76.27
2018-11-11T00:18:35.875Z,76.00
2018-11-11T00:21:04.753Z,75.95
2018-11-11T00:23:33.462Z,76.18
2018-11-11T00:26:02.762Z,75.92
2018-11-11T00:28:31.357Z,76.14
2018-11-11T00:31:00.661Z,75.88
2018-11-11T00:33:29.308Z,75.83
2018-11-11T00:35:57.864Z,75.98
2018-11-11T00:38:27.244Z,75.72
2018-11-11T00:40:55.888Z,75.98
2018-11-11T00:43:24.579Z,76.03
2018-11-11T00:45:53.301Z,75.70
2018-11-11T00:48:21.846Z,75.86
2018-11-11T00:50:50.435Z,75.83
2018-11-11T00:53:20.472Z,75.51
2018-11-11T00:55:49.370Z,76.09
2018-11-11T00:58:18.413Z,76.35
2018-11-11T01:00:47.027Z,76.03
2018-11-11T01:03:15.759Z,76.21
2018-11-11T01:05:44.466Z,76.20
2018-11-11T01:08:13.079Z,76.85
2018-11-11T01:10:41.672Z,77.18
2018-11-11T01:13:10.297Z,76.68
2018-11-11T01:15:39.035Z,77.46
2018-11-11T01:18:07.824Z,77.08
2018-11-11T01:20:36.513Z,77.03
2018-11-11T01:23:05.766Z,77.70
2018-11-11T01:25:34.359Z,77.53
2018-11-11T01:28:02.993Z,77.47
2018-11-11T01:30:31.560Z,77.27
2018-11-11T01:33:00.248Z,77.56
2018-11-11T01:35:28.966Z,77.43
2018-11-11T01:37:57.745Z,77.37
2018-11-11T01:40:26.362Z,77.16
2018-11-11T01:42:54.971Z,77.65
2018-11-11T01:45:23.554Z,77.95
2018-11-11T01:47:52.162Z,77.59
2018-11-11T01:50:20.754Z,77.51
2018-11-11T01:52:49.456Z,77.78
2018-11-11T01:55:19.171Z,77.43
2018-11-11T01:57:47.787Z,77.67
2018-11-11T02:00:17.632Z,77.52
2018-11-11T02:02:47.050Z,77.27
2018-11-11T02:05:16.112Z,77.24
2018-11-11T02:07:46.751Z,77.30
2018-11-11T02:10:15.557Z,77.43
2018-11-11T02:12:45.234Z,77.61
2018-11-11T02:15:15.269Z,76.96
2018-11-11T02:17:43.944Z,77.69
2018-11-11T02:20:20.930Z,78.06
2018-11-11T02:22:50.868Z,78.64
2018-11-11T02:25:19.427Z,79.14
2018-11-11T02:27:48.069Z,79.41
2018-11-11T02:30:18.903Z,79.28
2018-11-11T02:32:47.494Z,79.66
2018-11-11T02:35:16.121Z,80.24
2018-11-11T02:37:45.068Z,80.17
2018-11-11T02:51:59.329Z,79.89
2018-11-11T02:57:30.452Z,79.58
2018-11-11T02:59:59.140Z,79.84
2018-11-11T03:02:27.789Z,79.24
2018-11-11T03:04:56.557Z,79.53
2018-11-11T03:07:25.417Z,79.45
2018-11-11T03:09:54.183Z,79.20
2018-11-11T03:12:22.844Z,79.03
2018-11-11T03:14:51.433Z,78.97
2018-11-11T03:17:20.041Z,78.68
2018-11-11T03:19:48.606Z,78.92
2018-11-11T03:22:17.190Z,78.89
2018-11-11T03:24:45.717Z,78.68
2018-11-11T03:27:14.276Z,78.86
2018-11-11T03:29:42.829Z,78.56
2018-11-11T03:32:11.410Z,78.85
2018-11-11T03:34:39.985Z,79.41
2018-11-11T03:37:08.571Z,79.39
2018-11-11T03:39:37.373Z,79.42
2018-11-11T03:42:06.195Z,79.10
2018-11-11T03:44:34.851Z,79.22
2018-11-11T03:47:03.621Z,79.44
2018-11-11T03:49:32.382Z,79.80
2018-11-11T03:52:01.415Z,79.29
2018-11-11T03:54:30.046Z,79.36
2018-11-11T03:56:58.954Z,79.18
2018-11-11T03:59:27.658Z,79.39
2018-11-11T04:01:56.416Z,79.63
2018-11-11T04:04:25.171Z,79.37
2018-11-11T04:06:53.772Z,79.73
2018-11-11T04:09:22.414Z,79.49
2018-11-11T04:11:51.099Z,79.62
2018-11-11T04:14:19.888Z,79.62
2018-11-11T04:16:48.643Z,79.91
2018-11-11T04:19:17.393Z,79.77
2018-11-11T04:21:46.150Z,80.02
2018-11-11T04:24:14.856Z,79.97
2018-11-11T04:26:43.743Z,79.89
2018-11-11T04:29:12.473Z,79.63
2018-11-11T04:31:41.143Z,79.82
2018-11-11T04:34:10.070Z,79.56
2018-11-11T04:36:38.643Z,79.64
2018-11-11T04:39:10.297Z,79.45
2018-11-11T04:41:38.847Z,79.57
2018-11-11T04:44:07.637Z,79.54
2018-11-11T04:46:36.401Z,79.50
2018-11-11T04:49:05.229Z,79.11
2018-11-11T04:51:33.858Z,79.41
2018-11-11T04:54:02.541Z,79.40
2018-11-11T04:56:31.161Z,79.21
2018-11-11T04:58:59.791Z,79.02
2018-11-11T05:01:28.636Z,78.92
2018-11-11T05:03:57.332Z,78.96
2018-11-11T05:06:25.863Z,79.04
2018-11-11T05:08:54.684Z,79.16
2018-11-11T05:11:23.277Z,78.96
2018-11-11T05:13:51.956Z,79.18
2018-11-11T05:16:20.610Z,79.30
2018-11-11T05:18:49.213Z,79.15
2018-11-11T05:21:17.942Z,78.93
2018-11-11T05:23:46.607Z,79.12
2018-11-11T05:26:15.375Z,79.08
2018-11-11T05:28:44.071Z,78.81
2018-11-11T05:31:12.653Z,78.75
2018-11-11T05:33:41.206Z,78.68
2018-11-11T05:36:09.774Z,78.76
2018-11-11T05:38:38.399Z,78.38
2018-11-11T05:41:07.299Z,78.38
2018-11-11T05:43:36.004Z,78.42
2018-11-11T05:46:04.711Z,78.54
2018-11-11T05:48:33.306Z,78.98
2018-11-11T05:51:02.093Z,78.93
2018-11-11T05:53:30.684Z,78.73
2018-11-11T05:55:59.322Z,78.82
2018-11-11T05:58:27.900Z,78.31
2018-11-11T06:00:56.563Z,78.37
2018-11-11T06:03:25.318Z,78.25
2018-11-11T06:05:54.004Z,78.48
2018-11-11T06:08:22.742Z,78.51
2018-11-11T06:10:51.444Z,78.53
2018-11-11T06:13:20.071Z,78.43
2018-11-11T06:15:48.830Z,78.37
2018-11-11T06:18:17.484Z,77.87
2018-11-11T06:20:46.133Z,77.50
2018-11-11T06:23:14.846Z,77.55
2018-11-11T06:25:43.531Z,77.14
2018-11-11T06:28:12.174Z,77.21
2018-11-11T06:30:40.812Z,76.74
2018-11-11T06:33:09.400Z,76.45
2018-11-11T06:35:38.001Z,76.47
2018-11-11T06:38:06.603Z,76.29
2018-11-11T06:40:35.256Z,75.89
2018-11-11T06:43:03.927Z,76.12
2018-11-11T06:45:32.565Z,75.74
2018-11-11T06:48:01.246Z,75.55
2018-11-11T06:50:29.892Z,75.42
2018-11-11T06:52:58.636Z,75.65
2018-11-11T06:55:27.322Z,75.56
2018-11-11T06:57:55.975Z,75.58
2018-11-11T07:00:24.681Z,75.32
2018-11-11T07:03:04.590Z,75.32
2018-11-11T07:05:33.204Z,75.40
2018-11-11T07:08:01.878Z,75.30
2018-11-11T07:10:31.566Z,75.34
2018-11-11T07:13:00.307Z,75.13
2018-11-11T07:15:29.184Z,75.03
2018-11-11T07:17:57.881Z,75.22
2018-11-11T07:20:26.798Z,75.20
2018-11-11T07:22:55.383Z,74.93
2018-11-11T07:25:24.124Z,74.98
2018-11-11T07:27:52.619Z,75.02
2018-11-11T07:30:21.221Z,75.02
2018-11-11T07:32:50.994Z,74.98
2018-11-11T07:35:19.668Z,74.87
2018-11-11T07:37:48.276Z,74.81
2018-11-11T07:40:17.415Z,74.77
2018-11-11T07:42:46.062Z,74.85
2018-11-11T07:45:14.738Z,74.90
2018-11-11T07:47:43.533Z,74.85
2018-11-11T07:50:12.633Z,75.00
2018-11-11T07:52:41.322Z,74.68
2018-11-11T07:55:12.044Z,74.53
2018-11-11T07:57:41.089Z,74.47
2018-11-11T08:00:11.929Z,74.50
2018-11-11T08:02:40.714Z,74.59
2018-11-11T08:05:09.743Z,74.87
2018-11-11T08:07:38.485Z,74.84
2018-11-11T08:10:17.484Z,74.86
2018-11-11T08:12:46.394Z,74.40
2018-11-11T08:15:15.039Z,75.06
2018-11-11T08:17:44.030Z,74.74
2018-11-11T08:20:12.723Z,73.97
2018-11-11T08:22:41.850Z,74.18
2018-11-11T08:25:10.513Z,73.98
2018-11-11T08:27:39.227Z,73.89
2018-11-11T08:30:08.934Z,73.80
2018-11-11T08:32:38.004Z,73.93
2018-11-11T08:35:07.713Z,73.92
2018-11-11T08:37:36.314Z,73.92
2018-11-11T08:40:05.463Z,73.73
2018-11-11T08:42:34.163Z,73.78
2018-11-11T08:45:03.091Z,73.71
2018-11-11T08:47:31.761Z,73.79
2018-11-11T08:50:00.478Z,73.83
2018-11-11T08:52:29.081Z,73.65
2018-11-11T08:54:57.812Z,73.66
2018-11-11T08:57:26.576Z,73.64
2018-11-11T08:59:55.340Z,73.60
2018-11-11T09:02:24.066Z,73.75
2018-11-11T09:04:53.188Z,73.68
2018-11-11T09:07:21.968Z,73.72
2018-11-11T09:09:50.598Z,73.51
2018-11-11T09:12:19.225Z,73.70
2018-11-11T09:14:47.977Z,73.32
2018-11-11T09:17:16.720Z,73.30
2018-11-11T09:19:45.474Z,73.00
2018-11-11T09:22:14.164Z,73.32
2018-11-11T09:24:42.793Z,73.15
2018-11-11T09:27:11.512Z,72.92
2018-11-11T09:29:40.259Z,72.73
2018-11-11T09:32:08.932Z,72.51
2018-11-11T09:34:37.711Z,72.26
2018-11-11T09:37:06.609Z,72.20
2018-11-11T09:39:35.248Z,72.23
2018-11-11T09:42:03.941Z,72.39
2018-11-11T09:44:32.673Z,71.94
2018-11-11T09:47:01.363Z,71.87
2018-11-11T09:49:30.134Z,71.60
2018-11-11T09:51:59.166Z,71.46
2018-11-11T09:54:28.152Z,71.55
2018-11-11T09:56:56.938Z,71.72
2018-11-11T09:59:25.735Z,71.28
2018-11-11T10:02:03.503Z,71.50
2018-11-11T10:04:40.035Z,71.74
2018-11-11T10:07:15.819Z,71.60
2018-11-11T10:09:49.696Z,71.89
2018-11-11T10:12:23.806Z,72.12
2018-11-11T10:15:00.637Z,71.30
2018-11-11T10:18:33.257Z,71.07
2018-11-11T10:24:07.077Z,70.92
2018-11-11T10:26:42.855Z,71.02
2018-11-11T10:30:16.601Z,70.64
2018-11-11T10:33:02.526Z,70.64
2018-11-11T10:35:53.236Z,70.78
2018-11-11T10:38:28.372Z,70.90
2018-11-11T10:41:01.566Z,72.47
2018-11-11T10:43:37.031Z,72.07
2018-11-11T10:46:10.315Z,71.27
2018-11-11T10:48:41.952Z,71.51
2018-11-11T10:51:11.214Z,72.00
2018-11-11T10:53:40.927Z,72.30
2018-11-11T10:56:09.795Z,71.88
2018-11-11T10:58:43.705Z,71.92
2018-11-11T11:01:18.889Z,71.89
2018-11-11T11:03:47.708Z,72.32
2018-11-11T11:06:16.597Z,72.63
2018-11-11T11:08:50.563Z,71.37
2018-11-11T11:11:19.337Z,71.97
2018-11-11T11:13:48.122Z,71.69
2018-11-11T11:16:16.866Z,71.83
2018-11-11T11:18:45.637Z,71.50
2018-11-11T11:21:14.859Z,72.33
2018-11-11T11:23:43.948Z,71.70
2018-11-11T11:26:12.949Z,70.19
2018-11-11T11:28:41.968Z,70.61
2018-11-11T11:31:11.195Z,71.96
2018-11-11T11:33:40.158Z,68.81
2018-11-11T11:36:09.189Z,67.31
2018-11-11T11:38:39.081Z,74.23
2018-11-11T11:41:07.721Z,71.41
2018-11-11T11:43:36.528Z,68.42
2018-11-11T11:46:05.793Z,66.30
2018-11-11T11:48:35.918Z,65.00
2018-11-11T11:51:05.256Z,63.61
2018-11-11T11:53:34.083Z,63.60
2018-11-11T11:56:03.015Z,64.56
2018-11-11T11:58:33.034Z,62.11
2018-11-11T12:01:01.858Z,63.18
2018-11-11T12:03:30.596Z,63.35
2018-11-11T12:05:59.292Z,62.13
2018-11-11T12:08:28.144Z,62.95
2018-11-11T12:10:57.291Z,62.52
2018-11-11T12:13:26.251Z,62.35
2018-11-11T12:15:55.307Z,64.50
2018-11-11T12:18:24.060Z,64.21
2018-11-11T12:20:52.779Z,62.54
2018-11-11T12:23:22.064Z,62.98
2018-11-11T12:25:51.121Z,63.21
2018-11-11T12:28:20.195Z,63.32
2018-11-11T12:30:49.179Z,61.74
2018-11-11T12:33:17.978Z,61.65
2018-11-11T12:35:47.253Z,61.69
2018-11-11T12:38:15.982Z,62.48
2018-11-11T12:40:44.625Z,62.05
2018-11-11T12:43:13.339Z,61.62
2018-11-11T12:45:41.927Z,61.44
2018-11-11T12:48:10.815Z,62.40
2018-11-11T12:50:39.538Z,62.61
2018-11-11T12:53:08.177Z,62.92
2018-11-11T12:55:36.883Z,62.63
2018-11-11T12:58:06.225Z,62.71
2018-11-11T13:00:34.965Z,62.82
2018-11-11T13:03:03.726Z,62.67
2018-11-11T13:05:32.402Z,63.12
2018-11-11T13:08:01.352Z,62.50
2018-11-11T13:10:30.687Z,62.51
2018-11-11T13:12:59.312Z,63.11
2018-11-11T13:15:28.251Z,62.36
2018-11-11T13:17:57.047Z,61.74
2018-11-11T13:20:25.771Z,62.21
2018-11-11T13:22:54.823Z,62.22
2018-11-11T13:25:23.577Z,62.63
2018-11-11T13:27:52.396Z,62.30
2018-11-11T13:30:21.297Z,62.25
2018-11-11T13:32:50.200Z,62.33
2018-11-11T13:35:19.055Z,61.90
2018-11-11T13:37:53.418Z,62.73
2018-11-11T13:40:25.396Z,62.65
2018-11-11T13:42:54.243Z,62.89
2018-11-11T13:45:23.597Z,62.72
2018-11-11T13:47:52.781Z,62.71
2018-11-11T13:50:24.122Z,62.84
2018-11-11T13:52:54.277Z,62.81
2018-11-11T13:55:23.453Z,62.83
2018-11-11T13:57:52.307Z,62.40
2018-11-11T14:00:26.898Z,62.83
2018-11-11T14:02:56.029Z,63.14
2018-11-11T14:05:25.020Z,63.07
2018-11-11T14:07:53.659Z,63.27
2018-11-11T14:10:23.867Z,63.53
2018-11-11T14:12:52.728Z,63.51
2018-11-11T14:15:26.320Z,63.67
2018-11-11T14:17:55.669Z,63.72
2018-11-11T14:20:25.449Z,63.44
2018-11-11T14:22:55.050Z,63.30
2018-11-11T14:25:26.643Z,63.10
2018-11-11T14:27:55.295Z,63.37
2018-11-11T14:30:25.414Z,63.61
2018-11-11T14:32:54.895Z,63.34
2018-11-11T14:35:23.762Z,63.61
2018-11-11T14:37:52.956Z,63.71
2018-11-11T14:40:23.558Z,63.88
2018-11-11T14:42:52.393Z,63.57
2018-11-11T14:45:23.429Z,63.82
2018-11-11T14:47:54.276Z,64.04
2018-11-11T14:50:23.671Z,63.96
2018-11-11T14:52:52.617Z,64.18
2018-11-11T14:55:22.619Z,64.55
2018-11-11T14:57:51.310Z,64.38
2018-11-11T15:00:23.347Z,64.32
2018-11-11T15:02:59.026Z,64.50
2018-11-11T15:05:28.019Z,64.41
2018-11-11T15:07:56.898Z,64.62
2018-11-11T15:10:25.539Z,64.39
2018-11-11T15:12:54.528Z,64.90
2018-11-11T15:15:24.185Z,64.75
2018-11-11T15:17:54.441Z,64.63
2018-11-11T15:20:23.263Z,64.92
2018-11-11T15:22:51.888Z,64.94
2018-11-11T15:25:22.222Z,64.77
2018-11-11T15:27:51.193Z,65.16
2018-11-11T15:30:26.264Z,65.20
2018-11-11T15:32:55.534Z,65.03
2018-11-11T15:35:24.277Z,64.86
2018-11-11T15:37:52.977Z,65.54
2018-11-11T15:40:27.888Z,65.45
2018-11-11T15:42:56.747Z,65.92
2018-11-11T15:45:26.959Z,66.16
2018-11-11T15:47:55.776Z,66.00
2018-11-11T15:50:26.225Z,66.11
2018-11-11T15:52:56.396Z,65.89
2018-11-11T15:55:26.451Z,66.59
2018-11-11T15:57:55.139Z,66.34
2018-11-11T16:00:26.292Z,66.21
2018-11-11T16:02:55.041Z,66.44
2018-11-11T16:05:23.722Z,66.57
2018-11-11T16:07:53.087Z,66.77
2018-11-11T16:10:28.020Z,66.36
2018-11-11T16:12:57.034Z,66.55
2018-11-11T16:15:35.812Z,66.77
2018-11-11T16:18:07.188Z,66.31
2018-11-11T16:20:35.964Z,66.51
2018-11-11T16:23:05.740Z,66.43
2018-11-11T16:25:35.020Z,66.62
2018-11-11T16:28:03.558Z,67.07
2018-11-11T16:30:33.795Z,67.29
2018-11-11T16:33:02.796Z,66.80
2018-11-11T16:35:32.381Z,66.79
2018-11-11T16:38:01.696Z,67.16
2018-11-11T16:40:31.773Z,66.78
2018-11-11T16:43:01.029Z,67.17
2018-11-11T16:45:30.509Z,66.16
2018-11-11T16:47:59.127Z,66.71
2018-11-11T16:50:29.552Z,66.36
2018-11-11T16:52:59.676Z,66.61
2018-11-11T16:55:30.046Z,66.35
2018-11-11T16:57:58.544Z,66.54
2018-11-11T17:00:29.526Z,66.58
2018-11-11T17:02:59.222Z,66.47
2018-11-11T17:05:29.472Z,65.93
2018-11-11T17:07:58.042Z,66.03
2018-11-11T17:10:28.965Z,66.55
2018-11-11T17:12:58.895Z,66.40
2018-11-11T17:15:29.211Z,66.69
2018-11-11T17:17:58.627Z,66.83
2018-11-11T17:20:28.054Z,66.09
2018-11-11T17:23:00.012Z,66.21
2018-11-11T17:25:28.893Z,66.49
2018-11-11T17:27:57.697Z,66.22
2018-11-11T17:30:28.103Z,66.34
2018-11-11T17:32:57.507Z,65.66
2018-11-11T17:35:26.745Z,66.32
2018-11-11T17:37:56.067Z,66.14
2018-11-11T17:40:27.104Z,65.96
2018-11-11T17:42:59.445Z,66.39
2018-11-11T17:45:28.731Z,66.20
2018-11-11T17:47:59.269Z,66.69
2018-11-11T17:50:31.241Z,66.83
2018-11-11T17:53:01.162Z,67.31
2018-11-11T17:55:30.352Z,67.48
2018-11-11T17:58:00.873Z,67.15
2018-11-11T18:00:31.114Z,67.37
2018-11-11T18:05:42.212Z,67.41
2018-11-11T18:08:10.953Z,67.96
2018-11-11T18:10:39.505Z,67.74
2018-11-11T18:13:08.246Z,68.96
2018-11-11T18:15:36.831Z,68.52
2018-11-11T18:18:05.769Z,68.33
2018-11-11T18:20:34.544Z,68.53
2018-11-11T18:23:03.981Z,69.06
2018-11-11T18:25:32.526Z,68.44
2018-11-11T18:28:01.305Z,68.61
2018-11-11T18:30:33.562Z,68.21
2018-11-11T18:33:02.246Z,68.46
2018-11-11T18:35:30.968Z,68.21
2018-11-11T18:37:59.591Z,75.10
2018-11-11T18:40:29.216Z,70.98
2018-11-11T18:42:58.080Z,72.70
2018-11-11T18:45:28.087Z,70.03
2018-11-11T18:47:56.807Z,66.92
2018-11-11T18:50:29.087Z,67.20
2018-11-11T18:52:57.793Z,67.56
2018-11-11T18:55:26.654Z,67.68
2018-11-11T18:57:55.345Z,66.46
2018-11-11T19:00:25.382Z,67.33
2018-11-11T19:02:54.803Z,66.55
2018-11-11T19:05:24.402Z,65.91
2018-11-11T19:07:53.365Z,65.45
2018-11-11T19:10:23.371Z,65.79
2018-11-11T19:12:53.457Z,66.16
2018-11-11T19:15:22.387Z,66.73
2018-11-11T19:17:51.855Z,66.84
2018-11-11T19:20:22.693Z,67.06
2018-11-11T19:22:51.647Z,67.00
2018-11-11T19:25:22.042Z,67.22
2018-11-11T19:27:52.524Z,68.25
2018-11-11T19:30:23.118Z,67.76
2018-11-11T19:32:52.311Z,68.13
2018-11-11T19:35:21.061Z,68.03
2018-11-11T19:37:51.370Z,68.47
2018-11-11T19:40:21.582Z,68.36
2018-11-11T19:42:51.059Z,68.78
2018-11-11T19:45:21.105Z,68.79
2018-11-11T19:47:49.936Z,68.76
2018-11-11T19:50:20.140Z,68.72
2018-11-11T19:52:49.957Z,69.10
2018-11-11T19:55:19.564Z,69.10
2018-11-11T19:57:48.260Z,69.38
2018-11-11T20:00:20.740Z,69.28
2018-11-11T20:02:50.357Z,69.16
2018-11-11T20:05:19.566Z,69.02
2018-11-11T20:07:49.408Z,69.09
2018-11-11T20:10:19.011Z,68.88
2018-11-11T20:12:47.597Z,69.05
2018-11-11T20:15:21.047Z,69.30
2018-11-11T20:17:49.993Z,68.99
2018-11-11T20:20:20.678Z,69.32
2018-11-11T20:22:49.858Z,69.24
2018-11-11T20:25:19.497Z,68.92
2018-11-11T20:27:48.542Z,68.88
2018-11-11T20:30:19.814Z,68.79
2018-11-11T20:32:48.550Z,68.90
2018-11-11T20:35:19.889Z,68.86
2018-11-11T20:37:48.665Z,69.04
2018-11-11T20:40:18.516Z,68.78
2018-11-11T20:42:47.525Z,69.35
2018-11-11T20:45:17.682Z,69.36
2018-11-11T20:47:47.013Z,69.05
2018-11-11T20:50:17.459Z,69.39
2018-11-11T20:52:47.132Z,68.75
2018-11-11T20:55:16.662Z,68.24
2018-11-11T20:57:45.285Z,68.03
2018-11-11T21:00:17.278Z,68.39
2018-11-11T21:02:46.244Z,68.08
2018-11-11T21:05:17.369Z,68.42
2018-11-11T21:07:46.076Z,68.81
2018-11-11T21:10:16.936Z,68.99
2018-11-11T21:12:45.576Z,69.42
2018-11-11T21:15:15.513Z,69.96
2018-11-11T21:17:44.693Z,70.18
2018-11-11T21:20:14.762Z,70.85
2018-11-11T21:22:43.745Z,70.26
2018-11-11T21:25:13.038Z,70.38
2018-11-11T21:27:42.608Z,70.98
2018-11-11T21:30:13.846Z,70.83
2018-11-11T21:32:42.583Z,70.83
2018-11-11T21:35:12.039Z,71.01
2018-11-11T21:37:41.094Z,70.74
2018-11-11T21:40:12.000Z,71.25
2018-11-11T21:42:41.135Z,71.28
2018-11-11T21:45:11.261Z,70.88
2018-11-11T21:47:40.020Z,71.30
2018-11-11T21:50:11.196Z,71.79
2018-11-11T21:52:39.828Z,72.36
2018-11-11T21:55:08.880Z,72.27
2018-11-11T21:57:37.728Z,72.97
2018-11-11T22:00:09.146Z,72.96
2018-11-11T22:02:37.897Z,73.37
2018-11-11T22:05:08.601Z,73.67
2018-11-11T22:07:37.667Z,74.48
2018-11-11T22:10:08.526Z,73.73
2018-11-11T22:12:37.495Z,73.98
2018-11-11T22:15:07.933Z,73.76
2018-11-11T22:17:36.630Z,73.86
2018-11-11T22:20:05.901Z,73.49
2018-11-11T22:22:34.605Z,74.19
2018-11-11T22:25:03.599Z,73.65
2018-11-11T22:27:32.252Z,73.80
2018-11-11T22:30:00.918Z,74.07
2018-11-11T22:32:29.447Z,73.65
2018-11-11T22:34:58.254Z,73.75
2018-11-11T22:37:26.993Z,74.37
2018-11-11T22:39:55.699Z,73.99
2018-11-11T22:42:24.305Z,73.76
2018-11-11T22:44:53.341Z,73.92
2018-11-11T22:47:21.908Z,73.59
2018-11-11T22:49:51.813Z,73.72
2018-11-11T22:52:21.039Z,73.23
2018-11-11T22:54:49.694Z,73.24
2018-11-11T22:57:18.360Z,73.05
2018-11-11T22:59:47.931Z,73.18
2018-11-11T23:02:17.033Z,72.97
2018-11-11T23:04:45.734Z,72.95
2018-11-11T23:07:14.911Z,72.94
2018-11-11T23:09:44.081Z,72.81
2018-11-11T23:12:13.766Z,73.22
2018-11-11T23:14:45.351Z,72.94
2018-11-11T23:17:13.877Z,73.09
2018-11-11T23:19:42.611Z,73.12
2018-11-11T23:22:11.269Z,73.36
2018-11-11T23:24:39.997Z,73.22
2018-11-11T23:27:09.095Z,72.87
2018-11-11T23:29:37.935Z,73.33
2018-11-11T23:32:06.563Z,72.83
2018-11-11T23:34:35.077Z,73.32
2018-11-11T23:37:04.140Z,73.02
2018-11-11T23:39:32.740Z,72.94
2018-11-11T23:42:01.372Z,72.68
2018-11-11T23:44:29.942Z,72.99
2018-11-11T23:46:58.615Z,72.82
2018-11-11T23:49:27.279Z,72.48
2018-11-11T23:51:56.094Z,72.80
2018-11-11T23:54:24.798Z,72.55
2018-11-11T23:56:53.562Z,72.50
2018-11-11T23:59:22.192Z,72.83
